Terminal Aerodrome Forecast
Issued by NWS

Home | Current Version | Previous Version | Text Only | Print | Product List | Glossary Off
Versions: 1 2 3 4 5 6 7 8 9 10 11 12 13 14 15 16 17 18 19 20 21 22 23 24 25 26 27 28 29 30 31 32

000
FTUS43 KLOT 230200 AAA
TAFGYY
TAF AMD
KGYY 230256Z 2303/2324 14003KT P6SM FEW250
     FM231400 19009KT P6SM SCT250
     FM232200 20008KT P6SM -SHRA SCT025 BKN040 OVC070=

USA.gov is the U.S. government's official web portal to all federal, state and local government web resources and services.